createdAt,value
2018-09-17T00:01:13.079Z,101629.71
2018-09-17T00:03:39.985Z,101623.56
2018-09-17T00:06:06.887Z,101623.25
2018-09-17T00:08:33.780Z,101621.56
2018-09-17T00:11:00.645Z,101614.88
2018-09-17T00:13:27.544Z,101618.45
2018-09-17T00:15:54.429Z,101605.09
2018-09-17T00:18:21.357Z,101610.28
2018-09-17T00:20:48.245Z,101612.39
2018-09-17T00:23:15.121Z,101609.24
2018-09-17T00:25:42.032Z,101598.59
2018-09-17T00:28:08.904Z,101595.46
2018-09-17T00:30:42.684Z,101593.17
2018-09-17T00:33:09.592Z,101595.56
2018-09-17T00:35:36.520Z,101599.98
2018-09-17T00:38:03.425Z,101597.27
2018-09-17T00:40:30.336Z,101591.92
2018-09-17T00:42:57.243Z,101610.91
2018-09-17T00:45:24.193Z,101605.58
2018-09-17T00:47:51.209Z,101601.05
2018-09-17T00:50:18.148Z,101594.54
2018-09-17T00:52:45.053Z,101592.91
2018-09-17T00:55:11.971Z,101596.92
2018-09-17T00:57:38.873Z,101597.75
2018-09-17T01:00:05.812Z,101586.39
2018-09-17T01:02:32.733Z,101585.75
2018-09-17T01:04:59.666Z,101578.48
2018-09-17T01:07:26.586Z,101585.64
2018-09-17T01:09:53.491Z,101580.39
2018-09-17T01:12:20.401Z,101585.70
2018-09-17T01:14:47.339Z,101576.16
2018-09-17T01:17:14.262Z,101579.45
2018-09-17T01:19:41.186Z,101580.70
2018-09-17T01:22:08.161Z,101578.92
2018-09-17T01:24:35.088Z,101574.03
2018-09-17T01:27:02.048Z,101562.80
2018-09-17T01:29:28.976Z,101561.69
2018-09-17T01:31:56.009Z,101555.23
2018-09-17T01:34:23.004Z,101565.58
2018-09-17T01:36:49.916Z,101552.19
2018-09-17T01:39:16.844Z,101557.34
2018-09-17T01:41:43.780Z,101559.34
2018-09-17T01:44:10.699Z,101555.87
2018-09-17T01:46:37.652Z,101554.63
2018-09-17T01:49:04.795Z,101559.23
2018-09-17T01:51:31.720Z,101548.39
2018-09-17T01:53:58.624Z,101546.11
2018-09-17T01:56:25.559Z,101541.55
2018-09-17T01:58:52.464Z,101537.38
2018-09-17T02:01:19.376Z,101536.28
2018-09-17T02:03:46.300Z,101543.88
2018-09-17T02:06:13.226Z,101535.84
2018-09-17T02:08:40.210Z,101541.27
2018-09-17T02:11:07.080Z,101545.66
2018-09-17T02:13:34.188Z,101536.72
2018-09-17T02:16:01.097Z,101531.56
2018-09-17T02:18:28.012Z,101535.64
2018-09-17T02:20:54.923Z,101537.05
2018-09-17T02:23:21.859Z,101551.91
2018-09-17T02:25:48.772Z,101549.58
2018-09-17T02:28:15.680Z,101551.65
2018-09-17T02:30:42.836Z,101553.81
2018-09-17T02:33:09.729Z,101566.07
2018-09-17T02:35:36.623Z,101570.62
2018-09-17T02:38:03.526Z,101574.56
2018-09-17T02:40:30.447Z,101576.16
2018-09-17T02:42:57.352Z,101578.95
2018-09-17T02:45:24.245Z,101576.50
2018-09-17T02:47:51.146Z,101581.16
2018-09-17T02:50:18.047Z,101585.27
2018-09-17T02:52:44.931Z,101579.58
2018-09-17T02:55:11.830Z,101581.64
2018-09-17T02:57:38.762Z,101583.41
2018-09-17T03:00:07.072Z,101577.66
2018-09-17T03:02:33.969Z,101587.27
2018-09-17T03:05:00.847Z,101596.42
2018-09-17T03:07:27.772Z,101604.11
2018-09-17T03:09:54.641Z,101603.66
2018-09-17T03:12:21.536Z,101603.37
2018-09-17T03:14:48.448Z,101606.02
2018-09-17T03:17:15.457Z,101611.18
2018-09-17T03:19:43.381Z,101613.23
2018-09-17T03:22:11.036Z,101619.35
2018-09-17T03:24:38.097Z,101619.77
2018-09-17T03:27:06.043Z,101622.52
2018-09-17T03:29:32.936Z,101623.63
2018-09-17T03:31:59.826Z,101626.03
2018-09-17T03:34:27.086Z,101629.56
2018-09-17T03:36:53.982Z,101627.43
2018-09-17T03:39:20.896Z,101627.84
2018-09-17T03:41:47.835Z,101620.24
2018-09-17T03:44:14.729Z,101618.23
2018-09-17T03:46:41.653Z,101616.75
2018-09-17T03:49:08.513Z,101616.22
2018-09-17T03:51:35.412Z,101615.56
2018-09-17T03:54:02.304Z,101611.73
2018-09-17T03:56:29.203Z,101613.20
2018-09-17T03:58:56.082Z,101610.48
2018-09-17T04:01:23.006Z,101605.77
2018-09-17T04:03:49.931Z,101601.05
2018-09-17T04:06:16.845Z,101605.52
2018-09-17T04:08:43.740Z,101605.52
2018-09-17T04:11:10.652Z,101606.66
2018-09-17T04:13:37.562Z,101611.05
2018-09-17T04:16:04.483Z,101603.06
2018-09-17T04:18:31.381Z,101611.48
2018-09-17T04:20:58.274Z,101605.73
2018-09-17T04:23:30.749Z,101611.61
2018-09-17T04:25:57.671Z,101605.95
2018-09-17T04:28:24.569Z,101607.55
2018-09-17T04:30:51.472Z,101611.24
2018-09-17T04:33:18.397Z,101606.62
2018-09-17T04:35:45.349Z,101608.30
2018-09-17T04:38:12.258Z,101605.47
2018-09-17T04:40:39.152Z,101600.75
2018-09-17T04:43:06.053Z,101598.20
2018-09-17T04:45:32.941Z,101595.66
2018-09-17T04:47:59.852Z,101593.32
2018-09-17T04:50:26.741Z,101597.25
2018-09-17T04:52:53.629Z,101594.05
2018-09-17T04:55:20.517Z,101600.33
2018-09-17T04:57:47.429Z,101597.30
2018-09-17T05:00:14.328Z,101595.11
2018-09-17T05:02:41.232Z,101593.80
2018-09-17T05:05:08.132Z,101595.41
2018-09-17T05:07:35.046Z,101597.88
2018-09-17T05:10:01.953Z,101601.90
2018-09-17T05:12:28.856Z,101591.44
2018-09-17T05:14:55.752Z,101597.71
2018-09-17T05:17:22.647Z,101597.67
2018-09-17T05:19:49.540Z,101594.77
2018-09-17T05:22:16.432Z,101597.27
2018-09-17T05:24:43.320Z,101579.31
2018-09-17T05:27:10.267Z,101587.95
2018-09-17T05:29:37.169Z,101586.03
2018-09-17T05:32:04.072Z,101584.48
2018-09-17T05:34:30.963Z,101588.50
2018-09-17T05:36:57.852Z,101585.92
2018-09-17T05:39:24.758Z,101586.58
2018-09-17T05:41:51.655Z,101589.41
2018-09-17T05:44:18.607Z,101595.61
2018-09-17T05:46:45.487Z,101598.83
2018-09-17T05:49:12.384Z,101589.69
2018-09-17T05:51:39.293Z,101605.20
2018-09-17T05:54:06.233Z,101603.59
2018-09-17T05:56:33.141Z,101600.89
2018-09-17T05:59:00.061Z,101610.13
2018-09-17T06:01:26.984Z,101603.83
2018-09-17T06:03:54.546Z,101609.82
2018-09-17T06:06:21.437Z,101611.95
2018-09-17T06:08:48.317Z,101601.59
2018-09-17T06:11:15.246Z,101597.20
2018-09-17T06:13:42.164Z,101592.80
2018-09-17T06:16:09.045Z,101600.56
2018-09-17T06:18:36.019Z,101589.34
2018-09-17T06:21:03.265Z,101590.97
2018-09-17T06:23:30.256Z,101590.70
2018-09-17T06:25:57.157Z,101586.17
2018-09-17T06:28:24.047Z,101589.77
2018-09-17T06:30:50.960Z,101601.97
2018-09-17T06:33:17.912Z,101601.70
2018-09-17T06:35:44.794Z,101603.98
2018-09-17T06:38:11.689Z,101615.20
2018-09-17T06:40:38.577Z,101618.86
2018-09-17T06:43:05.514Z,101620.03
2018-09-17T06:45:32.421Z,101625.95
2018-09-17T06:47:59.308Z,101622.92
2018-09-17T06:50:26.222Z,101627.25
2018-09-17T06:52:53.124Z,101631.17
2018-09-17T06:55:20.029Z,101628.33
2018-09-17T06:57:46.911Z,101632.70
2018-09-17T07:00:13.816Z,101638.16
2018-09-17T07:02:40.716Z,101638.27
2018-09-17T07:05:07.648Z,101641.27
2018-09-17T07:07:34.532Z,101636.00
2018-09-17T07:10:01.430Z,101644.16
2018-09-17T07:12:28.324Z,101636.94
2018-09-17T07:14:55.228Z,101637.89
2018-09-17T07:17:22.116Z,101635.42
2018-09-17T07:19:49.015Z,101636.34
2018-09-17T07:22:15.912Z,101632.61
2018-09-17T07:24:42.826Z,101635.69
2018-09-17T07:27:09.719Z,101640.52
2018-09-17T07:29:36.674Z,101644.53
2018-09-17T07:32:03.595Z,101642.89
2018-09-17T07:34:30.495Z,101636.11
2018-09-17T07:36:57.380Z,101644.28
2018-09-17T07:39:24.280Z,101647.95
2018-09-17T07:41:51.164Z,101645.95
2018-09-17T07:44:18.065Z,101650.73
2018-09-17T07:46:44.957Z,101645.22
2018-09-17T07:49:11.869Z,101653.19
2018-09-17T07:51:38.773Z,101655.95
2018-09-17T07:54:05.681Z,101650.92
2018-09-17T07:56:32.576Z,101647.78
2018-09-17T07:58:59.554Z,101649.70
2018-09-17T08:01:26.403Z,101641.10
2018-09-17T08:03:53.324Z,101637.67
2018-09-17T08:06:20.209Z,101636.08
2018-09-17T08:08:47.089Z,101625.89
2018-09-17T08:11:13.984Z,101624.48
2018-09-17T08:13:40.871Z,101627.90
2018-09-17T08:16:07.772Z,101635.89
2018-09-17T08:18:34.644Z,101639.71
2018-09-17T08:21:01.557Z,101630.55
2018-09-17T08:23:28.448Z,101634.77
2018-09-17T08:25:55.367Z,101630.11
2018-09-17T08:28:22.316Z,101624.88
2018-09-17T08:30:49.227Z,101628.73
2018-09-17T08:33:16.112Z,101625.43
2018-09-17T08:35:43.008Z,101618.15
2018-09-17T08:38:09.938Z,101617.38
2018-09-17T08:40:36.815Z,101610.23
2018-09-17T08:43:03.701Z,101632.05
2018-09-17T08:45:30.608Z,101633.94
2018-09-17T08:47:57.489Z,101637.75
2018-09-17T08:50:24.393Z,101635.70
2018-09-17T08:52:51.343Z,101638.23
2018-09-17T08:55:23.849Z,101639.73
2018-09-17T08:57:55.694Z,101634.02
2018-09-17T09:00:27.183Z,101631.69
2018-09-17T09:02:59.864Z,101628.42
2018-09-17T09:05:32.615Z,101627.16
2018-09-17T09:07:59.504Z,101630.72
2018-09-17T09:10:32.025Z,101635.86
2018-09-17T09:13:04.721Z,101641.56
2018-09-17T09:15:37.368Z,101637.80
2018-09-17T09:18:05.323Z,101647.05
2018-09-17T09:20:32.478Z,101653.67
2018-09-17T09:22:59.355Z,101642.67
2018-09-17T09:25:26.274Z,101634.17
2018-09-17T09:27:53.181Z,101638.92
2018-09-17T09:30:20.209Z,101635.91
2018-09-17T09:32:47.105Z,101637.21
2018-09-17T09:35:13.992Z,101642.89
2018-09-17T09:37:40.912Z,101642.70
2018-09-17T09:40:07.799Z,101649.08
2018-09-17T09:42:34.684Z,101640.39
2018-09-17T09:45:01.584Z,101648.20
2018-09-17T09:47:28.481Z,101647.75
2018-09-17T09:49:55.358Z,101643.30
2018-09-17T09:52:22.245Z,101642.66
2018-09-17T09:54:49.122Z,101643.83
2018-09-17T09:57:16.012Z,101638.48
2018-09-17T09:59:42.928Z,101642.23
2018-09-17T10:02:15.591Z,101637.51
2018-09-17T10:04:42.479Z,101633.59
2018-09-17T10:07:09.375Z,101623.60
2018-09-17T10:09:42.108Z,101621.61
2018-09-17T10:12:14.756Z,101614.36
2018-09-17T10:14:47.552Z,101615.88
2018-09-17T10:17:20.194Z,101607.43
2018-09-17T10:19:48.812Z,101605.27
2018-09-17T10:22:16.056Z,101602.63
2018-09-17T10:24:42.948Z,101604.17
2018-09-17T10:27:09.855Z,101602.55
2018-09-17T10:29:36.743Z,101596.75
2018-09-17T10:32:03.636Z,101588.42
2018-09-17T10:34:30.508Z,101588.98
2018-09-17T10:36:57.443Z,101590.48
2018-09-17T10:39:24.331Z,101588.20
2018-09-17T10:41:51.244Z,101584.66
2018-09-17T10:44:18.120Z,101575.18
2018-09-17T10:46:45.009Z,101570.14
2018-09-17T10:49:11.895Z,101570.19
2018-09-17T10:51:38.787Z,101570.52
2018-09-17T10:54:05.732Z,101572.66
2018-09-17T10:56:32.613Z,101566.67
2018-09-17T10:58:59.514Z,101566.24
2018-09-17T11:01:26.411Z,101563.27
2018-09-17T11:03:53.316Z,101562.56
2018-09-17T11:06:20.205Z,101563.70
2018-09-17T11:08:47.152Z,101557.46
2018-09-17T11:11:14.013Z,101561.48
2018-09-17T11:13:40.916Z,101564.91
2018-09-17T11:16:07.799Z,101572.25
2018-09-17T11:18:34.695Z,101571.08
2018-09-17T11:21:01.589Z,101572.16
2018-09-17T11:23:28.484Z,101566.19
2018-09-17T11:25:55.377Z,101562.94
2018-09-17T11:28:22.276Z,101566.13
2018-09-17T11:30:49.181Z,101567.65
2018-09-17T11:33:16.076Z,101560.09
2018-09-17T11:35:42.984Z,101563.09
2018-09-17T11:38:10.175Z,101567.28
2018-09-17T11:40:37.057Z,101559.11
2018-09-17T11:43:03.959Z,101569.73
2018-09-17T11:45:30.844Z,101563.72
2018-09-17T11:47:57.728Z,101569.00
2018-09-17T11:50:24.622Z,101569.04
2018-09-17T11:52:51.527Z,101561.23
2018-09-17T11:55:18.495Z,101569.13
2018-09-17T11:57:45.391Z,101573.34
2018-09-17T12:00:16.891Z,101569.52
2018-09-17T12:02:49.628Z,101569.23
2018-09-17T12:05:22.274Z,101569.39
2018-09-17T12:07:49.181Z,101567.74
2018-09-17T12:10:16.127Z,101567.00
2018-09-17T12:12:42.971Z,101565.58
2018-09-17T12:15:09.951Z,101566.14
2018-09-17T12:17:36.799Z,101563.75
2018-09-17T12:20:03.688Z,101568.98
2018-09-17T12:22:30.568Z,101576.58
2018-09-17T12:24:57.472Z,101563.25
2018-09-17T12:27:24.360Z,101566.66
2018-09-17T12:29:51.295Z,101559.53
2018-09-17T12:32:18.182Z,101565.13
2018-09-17T12:34:45.080Z,101559.71
2018-09-17T12:37:11.971Z,101559.61
2018-09-17T12:39:38.876Z,101567.88
2018-09-17T12:42:06.072Z,101557.73
2018-09-17T12:44:32.989Z,101555.30
2018-09-17T12:46:59.891Z,101553.84
2018-09-17T12:49:26.788Z,101553.59
2018-09-17T12:51:53.668Z,101551.16
2018-09-17T12:54:20.594Z,101545.86
2018-09-17T12:56:47.508Z,101546.31
2018-09-17T12:59:14.436Z,101540.80
2018-09-17T13:01:41.318Z,101543.06
2018-09-17T13:04:08.220Z,101537.86
2018-09-17T13:06:35.113Z,101540.42
2018-09-17T13:09:02.020Z,101528.21
2018-09-17T13:11:28.908Z,101534.23
2018-09-17T13:13:55.816Z,101536.45
2018-09-17T13:16:22.721Z,101533.50
2018-09-17T13:18:49.604Z,101535.72
2018-09-17T13:21:16.492Z,101534.88
2018-09-17T13:23:43.395Z,101537.89
2018-09-17T13:26:10.280Z,101533.98
2018-09-17T13:28:37.151Z,101539.78
2018-09-17T13:31:04.065Z,101537.30
2018-09-17T13:33:30.952Z,101529.28
2018-09-17T13:35:57.852Z,101536.98
2018-09-17T13:38:24.749Z,101536.48
2018-09-17T13:40:51.632Z,101531.81
2018-09-17T13:43:18.558Z,101530.38
2018-09-17T13:45:45.448Z,101530.38
2018-09-17T13:48:12.332Z,101524.83
2018-09-17T13:50:39.239Z,101525.84
2018-09-17T13:53:06.153Z,101529.44
2018-09-17T13:55:33.039Z,101525.77
2018-09-17T13:57:59.918Z,101523.52
2018-09-17T14:00:26.811Z,101518.54
2018-09-17T14:02:53.835Z,101517.68
2018-09-17T14:05:20.740Z,101525.14
2018-09-17T14:07:47.632Z,101519.06
2018-09-17T14:10:14.568Z,101516.59
2018-09-17T14:12:41.423Z,101511.55
2018-09-17T14:15:08.341Z,101510.73
2018-09-17T14:17:35.225Z,101503.80
2018-09-17T14:20:02.208Z,101510.50
2018-09-17T14:22:29.094Z,101502.36
2018-09-17T14:24:56.032Z,101501.73
2018-09-17T14:27:22.965Z,101505.86
2018-09-17T14:29:49.857Z,101497.52
2018-09-17T14:32:22.689Z,101499.60
2018-09-17T14:34:49.576Z,101499.99
2018-09-17T14:37:16.464Z,101496.14
2018-09-17T14:39:43.378Z,101499.08
2018-09-17T14:42:10.295Z,101494.21
2018-09-17T14:44:37.222Z,101498.25
2018-09-17T14:47:04.100Z,101492.66
2018-09-17T14:49:31.404Z,101494.03
2018-09-17T14:51:58.336Z,101489.04
2018-09-17T14:54:25.287Z,101489.24
2018-09-17T14:56:52.112Z,101489.84
2018-09-17T14:59:19.000Z,101489.55
2018-09-17T15:01:46.067Z,101486.27
2018-09-17T15:04:12.960Z,101484.89
2018-09-17T15:06:39.785Z,101480.19
2018-09-17T15:09:07.371Z,101486.92
2018-09-17T15:11:34.276Z,101485.47
2018-09-17T15:14:01.183Z,101486.19
2018-09-17T15:16:28.120Z,101480.16
2018-09-17T15:18:54.947Z,101485.84
2018-09-17T15:21:21.846Z,101480.23
2018-09-17T15:23:48.778Z,101484.30
2018-09-17T15:26:15.717Z,101484.08
2018-09-17T15:28:42.547Z,101488.98
2018-09-17T15:31:09.528Z,101483.53
2018-09-17T15:33:36.368Z,101485.45
2018-09-17T15:36:03.239Z,101482.98
2018-09-17T15:38:30.151Z,101476.14
2018-09-17T15:40:57.256Z,101474.17
2018-09-17T15:43:24.044Z,101475.77
2018-09-17T15:45:50.944Z,101476.31
2018-09-17T15:48:17.819Z,101471.62
2018-09-17T15:50:44.704Z,101465.46
2018-09-17T15:53:11.588Z,101470.28
2018-09-17T15:55:38.472Z,101460.02
2018-09-17T15:58:05.664Z,101459.94
2018-09-17T16:00:32.531Z,101453.63
2018-09-17T16:02:59.543Z,101456.58
2018-09-17T16:05:26.312Z,101454.91
2018-09-17T16:07:53.208Z,101453.73
2018-09-17T16:10:20.096Z,101458.05
2018-09-17T16:12:46.981Z,101458.62
2018-09-17T16:15:13.869Z,101455.03
2018-09-17T16:17:40.752Z,101450.31
2018-09-17T16:20:07.657Z,101452.96
2018-09-17T16:22:34.544Z,101451.51
2018-09-17T16:25:01.444Z,101451.15
2018-09-17T16:27:28.349Z,101446.05
2018-09-17T16:29:55.254Z,101448.77
2018-09-17T16:32:22.144Z,101446.15
2018-09-17T16:34:49.024Z,101443.64
2018-09-17T16:37:15.920Z,101440.17
2018-09-17T16:39:42.806Z,101447.21
2018-09-17T16:42:09.716Z,101448.49
2018-09-17T16:44:36.607Z,101441.86
2018-09-17T16:47:03.545Z,101450.80
2018-09-17T16:49:30.460Z,101459.16
2018-09-17T16:51:57.432Z,101461.97
2018-09-17T16:54:24.350Z,101467.84
2018-09-17T16:56:51.239Z,101462.71
2018-09-17T16:59:18.190Z,101459.83
2018-09-17T17:01:45.128Z,101459.88
2018-09-17T17:04:12.020Z,101459.92
2018-09-17T17:06:38.908Z,101453.95
2018-09-17T17:09:07.772Z,101451.02
2018-09-17T17:11:34.647Z,101460.41
2018-09-17T17:14:01.624Z,101458.29
2018-09-17T17:16:28.507Z,101455.34
2018-09-17T17:18:55.538Z,101454.76
2018-09-17T17:21:22.767Z,101452.54
2018-09-17T17:23:49.688Z,101461.91
2018-09-17T17:26:16.591Z,101456.42
2018-09-17T17:28:43.521Z,101457.80
2018-09-17T17:31:10.408Z,101465.52
2018-09-17T17:33:37.301Z,101462.91
2018-09-17T17:36:04.234Z,101461.05
2018-09-17T17:38:31.136Z,101457.41
2018-09-17T17:40:58.040Z,101464.89
2018-09-17T17:43:24.936Z,101461.61
2018-09-17T17:45:51.835Z,101461.41
2018-09-17T17:48:18.749Z,101453.27
2018-09-17T17:50:45.644Z,101465.38
2018-09-17T17:53:12.552Z,101458.33
2018-09-17T17:55:39.446Z,101462.98
2018-09-17T17:58:06.391Z,101464.07
2018-09-17T18:00:33.393Z,101472.05
2018-09-17T18:03:00.248Z,101470.47
2018-09-17T18:05:27.153Z,101475.56
2018-09-17T18:07:54.044Z,101471.03
2018-09-17T18:10:20.955Z,101470.26
2018-09-17T18:12:47.896Z,101476.03
2018-09-17T18:15:14.860Z,101473.69
2018-09-17T18:17:41.760Z,101483.31
2018-09-17T18:20:08.680Z,101481.27
2018-09-17T18:22:35.632Z,101477.31
2018-09-17T18:25:04.690Z,101476.73
2018-09-17T18:27:31.588Z,101477.25
2018-09-17T18:29:58.582Z,101474.81
2018-09-17T18:32:25.476Z,101474.88
2018-09-17T18:34:52.718Z,101475.55
2018-09-17T18:37:19.684Z,101476.38
2018-09-17T18:39:46.819Z,101472.08
2018-09-17T18:42:13.488Z,101474.50
2018-09-17T18:44:40.409Z,101479.72
2018-09-17T18:47:07.317Z,101474.50
2018-09-17T18:49:34.223Z,101479.95
2018-09-17T18:52:01.120Z,101482.98
2018-09-17T18:54:28.029Z,101480.52
2018-09-17T18:56:54.948Z,101473.44
2018-09-17T18:59:21.861Z,101477.45
2018-09-17T19:01:48.744Z,101470.56
2018-09-17T19:04:15.653Z,101469.33
2018-09-17T19:06:42.565Z,101465.55
2018-09-17T19:09:09.480Z,101467.88
2018-09-17T19:11:36.416Z,101470.78
2018-09-17T19:14:09.225Z,101466.36
2018-09-17T19:16:41.924Z,101470.80
2018-09-17T19:19:08.911Z,101469.67
2018-09-17T19:21:41.790Z,101469.68
2018-09-17T19:24:08.695Z,101458.39
2018-09-17T19:26:35.585Z,101469.29
2018-09-17T19:29:08.175Z,101467.93
2018-09-17T19:31:35.031Z,101462.20
2018-09-17T19:34:01.938Z,101465.73
2018-09-17T19:36:28.845Z,101463.24
2018-09-17T19:39:59.265Z,101465.66
2018-09-17T19:42:26.315Z,101463.19
2018-09-17T19:44:58.979Z,101459.05
2018-09-17T19:47:25.893Z,101463.75
2018-09-17T19:49:52.934Z,101458.22
2018-09-17T19:52:22.449Z,101460.00
2018-09-17T19:54:49.348Z,101460.56
2018-09-17T19:57:21.934Z,101460.25
2018-09-17T19:59:53.319Z,101459.00
2018-09-17T20:02:20.652Z,101458.69
2018-09-17T20:04:53.287Z,101455.25
2018-09-17T20:07:20.176Z,101449.19
2018-09-17T20:09:47.072Z,101450.54
2018-09-17T20:12:13.972Z,101447.55
2018-09-17T20:14:40.881Z,101445.75
2018-09-17T20:17:07.775Z,101442.83
2018-09-17T20:19:34.661Z,101439.99
2018-09-17T20:22:01.565Z,101435.00
2018-09-17T20:24:28.459Z,101435.00
2018-09-17T20:26:55.351Z,101433.33
2018-09-17T20:29:22.241Z,101432.70
2018-09-17T20:31:49.156Z,101429.89
2018-09-17T20:34:16.056Z,101429.91
2018-09-17T20:36:42.939Z,101428.11
2018-09-17T20:39:09.842Z,101430.43
2018-09-17T20:41:36.737Z,101431.89
2018-09-17T20:44:03.624Z,101431.48
2018-09-17T20:46:30.524Z,101428.55
2018-09-17T20:48:57.521Z,101421.86
2018-09-17T20:51:24.400Z,101418.41
2018-09-17T20:53:51.300Z,101418.20
2018-09-17T20:56:18.188Z,101417.70
2018-09-17T20:58:45.090Z,101418.84
2018-09-17T21:01:12.032Z,101414.77
2018-09-17T21:03:38.904Z,101411.33
2018-09-17T21:06:05.813Z,101413.83
2018-09-17T21:08:32.720Z,101412.36
2018-09-17T21:10:59.597Z,101414.67
2018-09-17T21:13:26.519Z,101400.86
2018-09-17T21:15:53.407Z,101402.44
2018-09-17T21:18:20.378Z,101401.70
2018-09-17T21:20:47.285Z,101394.19
2018-09-17T21:23:14.185Z,101396.27
2018-09-17T21:25:41.057Z,101396.36
2018-09-17T21:28:08.013Z,101391.34
2018-09-17T21:30:34.845Z,101396.35
2018-09-17T21:33:01.744Z,101395.53
2018-09-17T21:35:28.636Z,101399.79
2018-09-17T21:37:55.519Z,101392.37
2018-09-17T21:40:22.417Z,101395.94
2018-09-17T21:42:49.333Z,101387.89
2018-09-17T21:45:16.212Z,101385.39
2018-09-17T21:47:43.290Z,101389.47
2018-09-17T21:50:10.338Z,101385.70
2018-09-17T21:52:37.283Z,101384.53
2018-09-17T21:55:04.443Z,101383.17
2018-09-17T21:57:31.451Z,101383.48
2018-09-17T21:59:58.348Z,101377.73
2018-09-17T22:02:25.327Z,101379.00
2018-09-17T22:04:52.175Z,101373.15
2018-09-17T22:07:19.076Z,101372.83
2018-09-17T22:09:45.968Z,101377.31
2018-09-17T22:12:12.868Z,101373.03
2018-09-17T22:14:39.748Z,101370.73
2018-09-17T22:17:06.684Z,101369.27
2018-09-17T22:19:33.613Z,101367.06
2018-09-17T22:22:00.512Z,101373.20
2018-09-17T22:24:27.416Z,101364.56
2018-09-17T22:26:54.304Z,101363.39
2018-09-17T22:29:21.191Z,101359.44
2018-09-17T22:31:48.092Z,101360.20
2018-09-17T22:34:14.983Z,101356.22
2018-09-17T22:36:41.877Z,101353.30
2018-09-17T22:39:09.688Z,101357.45
2018-09-17T22:41:36.909Z,101348.79
2018-09-17T22:44:03.900Z,101343.44
2018-09-17T22:46:30.809Z,101353.02
2018-09-17T22:48:57.703Z,101340.06
2018-09-17T22:51:24.601Z,101350.49
2018-09-17T22:53:51.494Z,101337.73
2018-09-17T22:56:18.388Z,101348.25
2018-09-17T22:58:45.280Z,101342.63
2018-09-17T23:01:12.177Z,101347.08
2018-09-17T23:03:39.073Z,101338.63
2018-09-17T23:06:05.998Z,101332.35
2018-09-17T23:08:32.905Z,101343.70
2018-09-17T23:10:59.826Z,101331.07
2018-09-17T23:13:26.752Z,101330.00
2018-09-17T23:15:53.643Z,101330.93
2018-09-17T23:18:20.536Z,101333.31
2018-09-17T23:20:47.411Z,101329.25
2018-09-17T23:23:14.325Z,101327.79
2018-09-17T23:25:41.212Z,101324.55
2018-09-17T23:28:14.916Z,101320.27
2018-09-17T23:30:41.816Z,101314.34
2018-09-17T23:33:08.740Z,101311.63
2018-09-17T23:35:35.633Z,101310.48
2018-09-17T23:38:02.533Z,101308.49
2018-09-17T23:40:29.434Z,101310.35
2018-09-17T23:42:56.359Z,101307.75
2018-09-17T23:45:23.268Z,101310.53
2018-09-17T23:47:50.151Z,101308.92
2018-09-17T23:50:17.052Z,101312.95
2018-09-17T23:52:43.939Z,101313.23
2018-09-17T23:55:10.841Z,101310.16
2018-09-17T23:57:37.736Z,101307.02
